sensor_id;sensor_type;location;lat;lon;timestamp;pressure;altitude;pressure_sealevel;temperature;humidity
49451;BME280;35336;48.400;10.886;2023-03-30T00:00:11;96088.72;;;10.25;73.19
49451;BME280;35336;48.400;10.886;2023-03-30T00:00:27;96087.09;;;10.24;73.02
49451;BME280;35336;48.400;10.886;2023-03-30T00:00:45;96087.91;;;10.24;73.17
49451;BME280;35336;48.400;10.886;2023-03-30T00:01:00;96071.28;;;10.15;73.10
49451;BME280;35336;48.400;10.886;2023-03-30T00:01:16;96073.13;;;10.15;73.57
49451;BME280;35336;48.400;10.886;2023-03-30T00:01:31;96092.44;;;10.24;73.12
49451;BME280;35336;48.400;10.886;2023-03-30T00:01:47;96053.41;;;10.02;73.25
49451;BME280;35336;48.400;10.886;2023-03-30T00:02:03;96082.59;;;10.24;73.33
49451;BME280;35336;48.400;10.886;2023-03-30T00:02:19;96071.09;;;10.17;73.37
49451;BME280;35336;48.400;10.886;2023-03-30T00:02:34;96075.19;;;10.20;73.23
49451;BME280;35336;48.400;10.886;2023-03-30T00:02:50;96081.97;;;10.22;73.11
49451;BME280;35336;48.400;10.886;2023-03-30T00:03:05;96081.78;;;10.24;73.32
49451;BME280;35336;48.400;10.886;2023-03-30T00:03:21;96049.75;;;10.04;73.01
49451;BME280;35336;48.400;10.886;2023-03-30T00:03:37;96069.66;;;10.14;73.26
49451;BME280;35336;48.400;10.886;2023-03-30T00:03:52;96050.34;;;9.99;73.20
49451;BME280;35336;48.400;10.886;2023-03-30T00:04:07;96060.59;;;10.09;73.10
49451;BME280;35336;48.400;10.886;2023-03-30T00:04:23;96079.50;;;10.21;73.16
49451;BME280;35336;48.400;10.886;2023-03-30T00:04:38;96072.31;;;10.14;73.36
49451;BME280;35336;48.400;10.886;2023-03-30T00:04:53;96077.22;;;10.17;73.45
49451;BME280;35336;48.400;10.886;2023-03-30T00:05:09;96079.50;;;10.21;73.14
49451;BME280;35336;48.400;10.886;2023-03-30T00:05:24;96071.28;;;10.15;73.10
49451;BME280;35336;48.400;10.886;2023-03-30T00:05:39;96076.84;;;10.21;73.33
49451;BME280;35336;48.400;10.886;2023-03-30T00:05:55;96069.44;;;10.16;73.18
49451;BME280;35336;48.400;10.886;2023-03-30T00:06:16;96066.34;;;10.12;73.31
49451;BME280;35336;48.400;10.886;2023-03-30T00:06:32;96080.53;;;10.20;73.23
49451;BME280;35336;48.400;10.886;2023-03-30T00:06:47;96076.22;;;10.18;73.21
49451;BME280;35336;48.400;10.886;2023-03-30T00:07:03;96074.56;;;10.17;73.50
49451;BME280;35336;48.400;10.886;2023-03-30T00:07:18;96064.13;;;10.09;73.42
49451;BME280;35336;48.400;10.886;2023-03-30T00:07:33;96078.28;;;10.16;73.45
49451;BME280;35336;48.400;10.886;2023-03-30T00:07:49;96080.31;;;10.14;73.78
49451;BME280;35336;48.400;10.886;2023-03-30T00:08:04;96073.13;;;10.08;73.88
49451;BME280;35336;48.400;10.886;2023-03-30T00:08:20;96048.28;;;9.94;74.06
49451;BME280;35336;48.400;10.886;2023-03-30T00:08:36;96070.47;;;10.08;73.75
49451;BME280;35336;48.400;10.886;2023-03-30T00:08:53;96058.53;;;10.04;73.53
49451;BME280;35336;48.400;10.886;2023-03-30T00:09:08;96051.34;;;9.98;74.03
49451;BME280;35336;48.400;10.886;2023-03-30T00:09:24;96078.03;;;10.11;73.75
49451;BME280;35336;48.400;10.886;2023-03-30T00:09:39;96074.56;;;10.11;74.05
49451;BME280;35336;48.400;10.886;2023-03-30T00:09:55;96073.72;;;10.10;74.20
49451;BME280;35336;48.400;10.886;2023-03-30T00:10:13;96063.88;;;10.04;74.25
49451;BME280;35336;48.400;10.886;2023-03-30T00:10:29;96058.75;;;10.02;74.10
49451;BME280;35336;48.400;10.886;2023-03-30T00:10:45;96081.72;;;10.10;74.09
49451;BME280;35336;48.400;10.886;2023-03-30T00:11:11;96056.25;;;9.94;74.33
49451;BME280;35336;48.400;10.886;2023-03-30T00:11:27;96074.75;;;10.09;74.14
49451;BME280;35336;48.400;10.886;2023-03-30T00:11:42;96054.44;;;9.95;74.36
49451;BME280;35336;48.400;10.886;2023-03-30T00:11:57;96066.94;;;10.01;74.01
49451;BME280;35336;48.400;10.886;2023-03-30T00:12:13;96059.34;;;9.98;73.92
49451;BME280;35336;48.400;10.886;2023-03-30T00:12:28;96059.97;;;10.00;73.99
49451;BME280;35336;48.400;10.886;2023-03-30T00:12:44;96069.00;;;10.06;74.22
49451;BME280;35336;48.400;10.886;2023-03-30T00:13:00;96070.63;;;10.07;74.39
49451;BME280;35336;48.400;10.886;2023-03-30T00:13:15;96074.13;;;10.07;74.37
49451;BME280;35336;48.400;10.886;2023-03-30T00:13:33;96059.97;;;10.00;74.27
49451;BME280;35336;48.400;10.886;2023-03-30T00:13:49;96055.44;;;10.00;74.31
49451;BME280;35336;48.400;10.886;2023-03-30T00:14:04;96071.47;;;10.07;74.36
49451;BME280;35336;48.400;10.886;2023-03-30T00:14:20;96069.00;;;10.06;74.21
49451;BME280;35336;48.400;10.886;2023-03-30T00:14:35;96073.13;;;10.08;74.13
49451;BME280;35336;48.400;10.886;2023-03-30T00:14:51;96073.13;;;10.08;74.20
49451;BME280;35336;48.400;10.886;2023-03-30T00:15:07;96072.28;;;10.08;74.13
49451;BME280;35336;48.400;10.886;2023-03-30T00:15:23;96077.81;;;10.06;73.88
49451;BME280;35336;48.400;10.886;2023-03-30T00:15:39;96074.75;;;10.09;73.83
49451;BME280;35336;48.400;10.886;2023-03-30T00:15:54;96049.91;;;9.95;73.91
49451;BME280;35336;48.400;10.886;2023-03-30T00:16:12;96073.13;;;10.08;74.21
49451;BME280;35336;48.400;10.886;2023-03-30T00:16:27;96075.97;;;10.07;74.17
49451;BME280;35336;48.400;10.886;2023-03-30T00:16:43;96073.50;;;10.05;73.87
49451;BME280;35336;48.400;10.886;2023-03-30T00:16:58;96072.69;;;10.05;74.01
49451;BME280;35336;48.400;10.886;2023-03-30T00:17:13;96063.44;;;10.00;74.44
49451;BME280;35336;48.400;10.886;2023-03-30T00:17:29;96071.06;;;10.04;74.47
49451;BME280;35336;48.400;10.886;2023-03-30T00:17:44;96069.19;;;10.04;74.48
49451;BME280;35336;48.400;10.886;2023-03-30T00:18:00;96049.88;;;9.89;74.22
49451;BME280;35336;48.400;10.886;2023-03-30T00:18:15;96063.22;;;9.95;74.06
49451;BME280;35336;48.400;10.886;2023-03-30T00:18:30;96042.69;;;9.82;74.16
49451;BME280;35336;48.400;10.886;2023-03-30T00:18:46;96069.41;;;10.02;74.35
49451;BME280;35336;48.400;10.886;2023-03-30T00:19:01;96068.19;;;9.98;74.10
49451;BME280;35336;48.400;10.886;2023-03-30T00:19:16;96068.38;;;10.04;74.36
49451;BME280;35336;48.400;10.886;2023-03-30T00:19:32;96065.50;;;9.98;74.16
49451;BME280;35336;48.400;10.886;2023-03-30T00:19:47;96045.97;;;9.84;74.32
49451;BME280;35336;48.400;10.886;2023-03-30T00:20:04;96055.44;;;9.94;74.41
49451;BME280;35336;48.400;10.886;2023-03-30T00:20:20;96064.28;;;10.01;74.16
49451;BME280;35336;48.400;10.886;2023-03-30T00:20:36;96068.19;;;10.05;74.10
49451;BME280;35336;48.400;10.886;2023-03-30T00:20:52;96052.97;;;9.92;74.24
49451;BME280;35336;48.400;10.886;2023-03-30T00:21:10;96076.38;;;10.04;74.40
49451;BME280;35336;48.400;10.886;2023-03-30T00:21:26;96076.16;;;10.05;74.16
49451;BME280;35336;48.400;10.886;2023-03-30T00:21:41;96076.16;;;10.05;74.33
49451;BME280;35336;48.400;10.886;2023-03-30T00:21:56;96071.69;;;10.06;74.23
49451;BME280;35336;48.400;10.886;2023-03-30T00:22:12;96075.16;;;10.06;74.02
49451;BME280;35336;48.400;10.886;2023-03-30T00:22:27;96062.00;;;9.98;74.21
49451;BME280;35336;48.400;10.886;2023-03-30T00:22:44;96071.06;;;10.04;74.33
49451;BME280;35336;48.400;10.886;2023-03-30T00:22:59;96061.19;;;9.97;74.20
49451;BME280;35336;48.400;10.886;2023-03-30T00:23:15;96059.97;;;10.00;74.12
49451;BME280;35336;48.400;10.886;2023-03-30T00:23:31;96062.22;;;10.03;74.25
49451;BME280;35336;48.400;10.886;2023-03-30T00:23:46;96067.16;;;10.06;74.22
49451;BME280;35336;48.400;10.886;2023-03-30T00:24:01;96069.81;;;10.06;74.37
49451;BME280;35336;48.400;10.886;2023-03-30T00:24:17;96069.00;;;10.06;74.00
49451;BME280;35336;48.400;10.886;2023-03-30T00:24:33;96072.50;;;10.06;74.42
49451;BME280;35336;48.400;10.886;2023-03-30T00:24:49;96069.81;;;10.06;74.50
49451;BME280;35336;48.400;10.886;2023-03-30T00:25:06;96068.81;;;10.07;74.10
49451;BME280;35336;48.400;10.886;2023-03-30T00:25:21;96054.66;;;10.00;74.27
49451;BME280;35336;48.400;10.886;2023-03-30T00:25:37;96069.81;;;10.06;74.22
49451;BME280;35336;48.400;10.886;2023-03-30T00:25:52;96049.72;;;9.97;74.27
49451;BME280;35336;48.400;10.886;2023-03-30T00:26:08;96070.47;;;10.08;74.46
49451;BME280;35336;48.400;10.886;2023-03-30T00:26:23;96063.47;;;10.07;74.20
49451;BME280;35336;48.400;10.886;2023-03-30T00:26:38;96056.91;;;10.03;74.28
49451;BME280;35336;48.400;10.886;2023-03-30T00:26:54;96072.09;;;10.09;74.37
49451;BME280;35336;48.400;10.886;2023-03-30T00:27:09;96059.81;;;10.08;73.99
49451;BME280;35336;48.400;10.886;2023-03-30T00:27:24;96056.13;;;10.09;74.37
49451;BME280;35336;48.400;10.886;2023-03-30T00:27:40;96042.72;;;9.96;74.04
49451;BME280;35336;48.400;10.886;2023-03-30T00:27:55;96055.88;;;10.04;74.25
49451;BME280;35336;48.400;10.886;2023-03-30T00:28:11;96064.13;;;10.09;73.92
49451;BME280;35336;48.400;10.886;2023-03-30T00:28:26;96062.47;;;10.08;74.13
49451;BME280;35336;48.400;10.886;2023-03-30T00:28:41;96055.50;;;10.07;74.20
49451;BME280;35336;48.400;10.886;2023-03-30T00:28:57;96049.13;;;10.01;73.98
49451;BME280;35336;48.400;10.886;2023-03-30T00:29:12;96069.22;;;10.11;74.15
49451;BME280;35336;48.400;10.886;2023-03-30T00:29:28;96058.78;;;10.09;74.44
49451;BME280;35336;48.400;10.886;2023-03-30T00:29:43;96060.41;;;10.10;74.19
49451;BME280;35336;48.400;10.886;2023-03-30T00:29:58;96055.28;;;10.02;74.38
49451;BME280;35336;48.400;10.886;2023-03-30T00:30:15;96064.50;;;10.06;74.37
49451;BME280;35336;48.400;10.886;2023-03-30T00:30:31;96065.72;;;10.10;74.31
49451;BME280;35336;48.400;10.886;2023-03-30T00:30:47;96046.88;;;9.98;74.31
49451;BME280;35336;48.400;10.886;2023-03-30T00:31:03;96067.38;;;10.11;74.31
49451;BME280;35336;48.400;10.886;2023-03-30T00:31:18;96060.41;;;10.10;74.35
49451;BME280;35336;48.400;10.886;2023-03-30T00:31:34;96063.06;;;10.10;74.49
49451;BME280;35336;48.400;10.886;2023-03-30T00:31:49;96068.38;;;10.10;74.16
49451;BME280;35336;48.400;10.886;2023-03-30T00:32:04;96034.53;;;9.91;74.46
49451;BME280;35336;48.400;10.886;2023-03-30T00:32:20;96061.44;;;10.09;74.57
49451;BME280;35336;48.400;10.886;2023-03-30T00:32:35;96062.03;;;10.11;74.55
49451;BME280;35336;48.400;10.886;2023-03-30T00:32:50;96041.34;;;10.00;74.34
49451;BME280;35336;48.400;10.886;2023-03-30T00:33:06;96059.19;;;10.13;74.02
49451;BME280;35336;48.400;10.886;2023-03-30T00:33:21;96067.00;;;10.14;74.14
49451;BME280;35336;48.400;10.886;2023-03-30T00:33:37;96057.56;;;10.12;74.10
49451;BME280;35336;48.400;10.886;2023-03-30T00:33:52;96057.97;;;10.15;73.96
49451;BME280;35336;48.400;10.886;2023-03-30T00:34:07;96065.56;;;10.18;74.22
49451;BME280;35336;48.400;10.886;2023-03-30T00:34:23;96058.41;;;10.19;74.11
49451;BME280;35336;48.400;10.886;2023-03-30T00:34:38;96035.78;;;10.01;74.19
49451;BME280;35336;48.400;10.886;2023-03-30T00:34:53;96054.09;;;10.18;73.87
49451;BME280;35336;48.400;10.886;2023-03-30T00:35:09;96058.81;;;10.23;73.86
49451;BME280;35336;48.400;10.886;2023-03-30T00:35:25;96061.69;;;10.28;73.67
49451;BME280;35336;48.400;10.886;2023-03-30T00:35:40;96049.38;;;10.27;73.72
49451;BME280;35336;48.400;10.886;2023-03-30T00:35:57;96060.88;;;10.34;73.63
49451;BME280;35336;48.400;10.886;2023-03-30T00:36:12;96048.38;;;10.28;73.61
49451;BME280;35336;48.400;10.886;2023-03-30T00:36:28;96051.66;;;10.30;73.46
49451;BME280;35336;48.400;10.886;2023-03-30T00:36:43;96053.72;;;10.35;73.75
49451;BME280;35336;48.400;10.886;2023-03-30T00:36:58;96041.19;;;10.28;73.53
49451;BME280;35336;48.400;10.886;2023-03-30T00:37:14;96058.28;;;10.41;73.30
49451;BME280;35336;48.400;10.886;2023-03-30T00:37:29;96050.28;;;10.41;73.33
49451;BME280;35336;48.400;10.886;2023-03-30T00:37:45;96059.72;;;10.43;72.89
49451;BME280;35336;48.400;10.886;2023-03-30T00:38:00;96056.84;;;10.45;73.40
49451;BME280;35336;48.400;10.886;2023-03-30T00:38:15;96045.34;;;10.38;73.25
49451;BME280;35336;48.400;10.886;2023-03-30T00:38:31;96051.28;;;10.46;72.87
49451;BME280;35336;48.400;10.886;2023-03-30T00:38:46;96050.69;;;10.44;72.81
49451;BME280;35336;48.400;10.886;2023-03-30T00:39:03;96054.38;;;10.50;73.04
49451;BME280;35336;48.400;10.886;2023-03-30T00:39:18;96027.88;;;10.35;72.77
49451;BME280;35336;48.400;10.886;2023-03-30T00:39:34;96051.94;;;10.55;72.87
49451;BME280;35336;48.400;10.886;2023-03-30T00:39:49;96055.41;;;10.56;72.99
49451;BME280;35336;48.400;10.886;2023-03-30T00:40:07;96047.84;;;10.53;72.69
49451;BME280;35336;48.400;10.886;2023-03-30T00:40:23;96060.13;;;10.60;72.52
49451;BME280;35336;48.400;10.886;2023-03-30T00:40:38;96051.13;;;10.61;72.35
49451;BME280;35336;48.400;10.886;2023-03-30T00:40:55;96054.59;;;10.62;72.37
49451;BME280;35336;48.400;10.886;2023-03-30T00:41:11;96049.88;;;10.64;72.25
49451;BME280;35336;48.400;10.886;2023-03-30T00:41:27;96049.09;;;10.63;72.36
49451;BME280;35336;48.400;10.886;2023-03-30T00:41:42;96048.47;;;10.61;72.10
49451;BME280;35336;48.400;10.886;2023-03-30T00:41:57;96054.81;;;10.67;72.26
49451;BME280;35336;48.400;10.886;2023-03-30T00:42:14;96052.16;;;10.74;72.22
49451;BME280;35336;48.400;10.886;2023-03-30T00:42:30;96055.22;;;10.77;72.20
49451;BME280;35336;48.400;10.886;2023-03-30T00:42:46;96052.97;;;10.81;71.72
49451;BME280;35336;48.400;10.886;2023-03-30T00:43:04;96054.41;;;10.84;71.44
49451;BME280;35336;48.400;10.886;2023-03-30T00:43:21;96042.09;;;10.76;71.52
49451;BME280;35336;48.400;10.886;2023-03-30T00:43:56;96048.47;;;10.82;71.27
49451;BME280;35336;48.400;10.886;2023-03-30T00:45:17;96059.94;;;11.02;70.65
49451;BME280;35336;48.400;10.886;2023-03-30T00:45:34;96050.31;;;11.01;70.80
49451;BME280;35336;48.400;10.886;2023-03-30T00:45:50;96057.28;;;11.02;70.83
49451;BME280;35336;48.400;10.886;2023-03-30T00:46:05;96023.44;;;10.83;70.81
49451;BME280;35336;48.400;10.886;2023-03-30T00:46:22;96058.09;;;11.09;70.79
49451;BME280;35336;48.400;10.886;2023-03-30T00:46:37;96041.69;;;11.06;70.65
49451;BME280;35336;48.400;10.886;2023-03-30T00:46:54;96044.13;;;11.07;70.17
49451;BME280;35336;48.400;10.886;2023-03-30T00:47:09;96048.25;;;11.23;70.01
49451;BME280;35336;48.400;10.886;2023-03-30T00:47:25;96051.50;;;11.25;69.82
49451;BME280;35336;48.400;10.886;2023-03-30T00:48:05;96048.41;;;11.35;69.62
49451;BME280;35336;48.400;10.886;2023-03-30T00:48:31;96047.38;;;11.36;69.16
49451;BME280;35336;48.400;10.886;2023-03-30T00:48:47;96048.41;;;11.42;69.01
49451;BME280;35336;48.400;10.886;2023-03-30T00:49:05;96044.09;;;11.48;69.22
49451;BME280;35336;48.400;10.886;2023-03-30T00:49:21;96025.00;;;11.37;68.51
49451;BME280;35336;48.400;10.886;2023-03-30T00:49:37;96051.25;;;11.54;68.54
49451;BME280;35336;48.400;10.886;2023-03-30T00:49:53;96052.91;;;11.55;68.63
49451;BME280;35336;48.400;10.886;2023-03-30T00:50:09;96039.56;;;11.48;68.40
49451;BME280;35336;48.400;10.886;2023-03-30T00:50:32;96044.88;;;11.55;68.39
49451;BME280;35336;48.400;10.886;2023-03-30T00:51:08;96048.16;;;11.57;68.35
49451;BME280;35336;48.400;10.886;2023-03-30T00:51:25;96048.75;;;11.59;68.15
49451;BME280;35336;48.400;10.886;2023-03-30T00:51:42;96048.75;;;11.66;68.14
49451;BME280;35336;48.400;10.886;2023-03-30T00:51:57;96052.25;;;11.66;68.18
49451;BME280;35336;48.400;10.886;2023-03-30T00:52:13;96056.78;;;11.66;68.16
49451;BME280;35336;48.400;10.886;2023-03-30T00:52:30;96039.13;;;11.58;68.09
49451;BME280;35336;48.400;10.886;2023-03-30T00:52:47;96037.69;;;11.55;68.29
49451;BME280;35336;48.400;10.886;2023-03-30T00:53:16;96050.19;;;11.62;68.05
49451;BME280;35336;48.400;10.886;2023-03-30T00:53:44;96054.69;;;11.68;67.49
49451;BME280;35336;48.400;10.886;2023-03-30T00:54:06;96040.53;;;11.60;67.51
49451;BME280;35336;48.400;10.886;2023-03-30T00:54:23;96031.31;;;11.63;67.53
49451;BME280;35336;48.400;10.886;2023-03-30T00:54:39;96049.75;;;11.71;67.71
49451;BME280;35336;48.400;10.886;2023-03-30T00:54:56;96042.78;;;11.70;67.77
49451;BME280;35336;48.400;10.886;2023-03-30T00:55:11;96056.31;;;11.75;67.38
49451;BME280;35336;48.400;10.886;2023-03-30T00:55:29;96032.94;;;11.64;67.42
49451;BME280;35336;48.400;10.886;2023-03-30T00:55:49;96054.06;;;11.72;67.52
49451;BME280;35336;48.400;10.886;2023-03-30T00:56:06;96046.44;;;11.76;67.33
49451;BME280;35336;48.400;10.886;2023-03-30T00:56:26;96052.63;;;11.76;67.41
49451;BME280;35336;48.400;10.886;2023-03-30T00:56:43;96054.28;;;11.78;67.55
49451;BME280;35336;48.400;10.886;2023-03-30T00:56:58;96044.41;;;11.71;67.48
49451;BME280;35336;48.400;10.886;2023-03-30T00:57:14;96038.66;;;11.74;67.17
49451;BME280;35336;48.400;10.886;2023-03-30T00:57:30;96051.78;;;11.83;66.96
49451;BME280;35336;48.400;10.886;2023-03-30T00:57:46;96034.75;;;11.77;67.09
49451;BME280;35336;48.400;10.886;2023-03-30T00:58:03;96046.84;;;11.86;66.92
49451;BME280;35336;48.400;10.886;2023-03-30T00:58:21;96052.97;;;11.87;66.86
49451;BME280;35336;48.400;10.886;2023-03-30T00:58:38;96050.31;;;11.87;66.89
49451;BME280;35336;48.400;10.886;2023-03-30T00:58:55;96028.41;;;11.65;67.11
49451;BME280;35336;48.400;10.886;2023-03-30T00:59:10;96052.56;;;11.90;67.19
49451;BME280;35336;48.400;10.886;2023-03-30T00:59:26;96055.88;;;11.92;66.79
49451;BME280;35336;48.400;10.886;2023-03-30T00:59:41;96054.22;;;11.91;66.89
49451;BME280;35336;48.400;10.886;2023-03-30T00:59:57;96048.44;;;11.94;66.77
49451;BME280;35336;48.400;10.886;2023-03-30T01:00:12;96053.78;;;11.94;67.03
49451;BME280;35336;48.400;10.886;2023-03-30T01:00:28;96042.91;;;11.89;66.76
49451;BME280;35336;48.400;10.886;2023-03-30T01:00:44;96042.91;;;11.89;66.29
49451;BME280;35336;48.400;10.886;2023-03-30T01:01:02;96025.47;;;11.80;66.23
49451;BME280;35336;48.400;10.886;2023-03-30T01:01:19;96052.16;;;12.00;66.26
49451;BME280;35336;48.400;10.886;2023-03-30T01:01:34;96042.28;;;11.94;66.41
49451;BME280;35336;48.400;10.886;2023-03-30T01:01:50;96058.31;;;12.00;66.11
49451;BME280;35336;48.400;10.886;2023-03-30T01:02:05;96050.91;;;12.02;66.15
49451;BME280;35336;48.400;10.886;2023-03-30T01:02:21;96039.59;;;11.94;66.24
49451;BME280;35336;48.400;10.886;2023-03-30T01:02:41;96043.94;;;11.95;66.50
49451;BME280;35336;48.400;10.886;2023-03-30T01:03:00;96061.81;;;12.01;66.49
49451;BME280;35336;48.400;10.886;2023-03-30T01:03:29;96041.91;;;11.97;66.34
49451;BME280;35336;48.400;10.886;2023-03-30T01:03:46;96060.72;;;12.08;66.26
49451;BME280;35336;48.400;10.886;2023-03-30T01:04:01;96049.25;;;12.01;66.54
49451;BME280;35336;48.400;10.886;2023-03-30T01:04:17;96054.19;;;12.04;66.43
49451;BME280;35336;48.400;10.886;2023-03-30T01:04:32;96053.41;;;11.97;66.49
49451;BME280;35336;48.400;10.886;2023-03-30T01:04:50;96037.16;;;11.92;66.16
49451;BME280;35336;48.400;10.886;2023-03-30T01:05:07;96054.19;;;12.04;66.62
49451;BME280;35336;48.400;10.886;2023-03-30T01:05:23;96048.66;;;11.99;66.55
49451;BME280;35336;48.400;10.886;2023-03-30T01:05:38;96056.84;;;12.04;66.40
49451;BME280;35336;48.400;10.886;2023-03-30T01:05:56;96036.72;;;11.95;66.25
49451;BME280;35336;48.400;10.886;2023-03-30T01:06:13;96055.44;;;12.02;66.18
49451;BME280;35336;48.400;10.886;2023-03-30T01:06:29;96056.06;;;12.04;66.35
49451;BME280;35336;48.400;10.886;2023-03-30T01:06:45;96060.78;;;12.02;66.42
49451;BME280;35336;48.400;10.886;2023-03-30T01:07:01;96053.41;;;11.97;66.60
49451;BME280;35336;48.400;10.886;2023-03-30T01:07:16;96029.97;;;11.86;66.38
49451;BME280;35336;48.400;10.886;2023-03-30T01:07:32;96049.69;;;11.98;66.34
49451;BME280;35336;48.400;10.886;2023-03-30T01:07:47;96035.94;;;11.88;66.51
49451;BME280;35336;48.400;10.886;2023-03-30T01:08:03;96045.56;;;11.96;66.64
49451;BME280;35336;48.400;10.886;2023-03-30T01:08:18;96060.78;;;12.02;66.50
49451;BME280;35336;48.400;10.886;2023-03-30T01:08:35;96060.34;;;12.05;66.33
49451;BME280;35336;48.400;10.886;2023-03-30T01:08:52;96058.72;;;12.04;66.12
49451;BME280;35336;48.400;10.886;2023-03-30T01:09:08;96064.25;;;12.02;66.15
49451;BME280;35336;48.400;10.886;2023-03-30T01:09:23;96054.41;;;12.03;66.16
49451;BME280;35336;48.400;10.886;2023-03-30T01:09:40;96060.56;;;12.03;66.27
49451;BME280;35336;48.400;10.886;2023-03-30T01:09:57;96061.59;;;12.02;66.00
49451;BME280;35336;48.400;10.886;2023-03-30T01:10:13;96064.25;;;12.02;66.33
49451;BME280;35336;48.400;10.886;2023-03-30T01:10:28;96063.84;;;11.99;66.44
49451;BME280;35336;48.400;10.886;2023-03-30T01:10:44;96063.66;;;12.00;66.42
49451;BME280;35336;48.400;10.886;2023-03-30T01:11:00;96058.09;;;11.95;66.62
49451;BME280;35336;48.400;10.886;2023-03-30T01:11:16;96063.84;;;11.99;66.67
49451;BME280;35336;48.400;10.886;2023-03-30T01:11:31;96066.34;;;12.00;66.52
49451;BME280;35336;48.400;10.886;2023-03-30T01:11:47;96048.84;;;11.98;66.76
49451;BME280;35336;48.400;10.886;2023-03-30T01:12:03;96042.28;;;11.87;66.68
49451;BME280;35336;48.400;10.886;2023-03-30T01:12:19;96058.75;;;11.97;66.69
49451;BME280;35336;48.400;10.886;2023-03-30T01:12:34;96063.22;;;12.03;66.26
49451;BME280;35336;48.400;10.886;2023-03-30T01:12:50;96061.19;;;12.05;66.35
49451;BME280;35336;48.400;10.886;2023-03-30T01:13:06;96054.19;;;11.98;66.54
49451;BME280;35336;48.400;10.886;2023-03-30T01:13:21;96032.84;;;11.84;66.30
49451;BME280;35336;48.400;10.886;2023-03-30T01:13:45;96062.19;;;12.04;66.30
49451;BME280;35336;48.400;10.886;2023-03-30T01:14:04;96064.88;;;12.04;66.41
49451;BME280;35336;48.400;10.886;2023-03-30T01:14:20;96050.28;;;11.94;66.24
49451;BME280;35336;48.400;10.886;2023-03-30T01:14:36;96064.88;;;12.04;66.42
49451;BME280;35336;48.400;10.886;2023-03-30T01:14:52;96059.13;;;12.07;66.30
49451;BME280;35336;48.400;10.886;2023-03-30T01:15:08;96034.91;;;11.89;66.20
49451;BME280;35336;48.400;10.886;2023-03-30T01:15:24;96061.78;;;12.07;66.02
49451;BME280;35336;48.400;10.886;2023-03-30T01:16:12;96062.19;;;12.11;66.01
49451;BME280;35336;48.400;10.886;2023-03-30T01:17:02;96042.69;;;12.04;66.21
49451;BME280;35336;48.400;10.886;2023-03-30T01:18:04;96050.25;;;12.07;66.20
49451;BME280;35336;48.400;10.886;2023-03-30T01:18:54;96054.56;;;12.08;66.63
49451;BME280;35336;48.400;10.886;2023-03-30T01:22:24;96044.69;;;12.08;66.46
49451;BME280;35336;48.400;10.886;2023-03-30T01:24:50;96040.66;;;11.99;66.92
49451;BME280;35336;48.400;10.886;2023-03-30T01:25:37;96042.06;;;11.95;66.90
49451;BME280;35336;48.400;10.886;2023-03-30T01:27:28;96047.19;;;12.03;66.76
49451;BME280;35336;48.400;10.886;2023-03-30T01:32:24;96057.28;;;12.01;66.78
49451;BME280;35336;48.400;10.886;2023-03-30T01:33:33;96051.72;;;12.03;67.16
49451;BME280;35336;48.400;10.886;2023-03-30T01:36:11;96058.06;;;12.08;66.71
49451;BME280;35336;48.400;10.886;2023-03-30T01:39:01;96051.50;;;12.04;67.31
49451;BME280;35336;48.400;10.886;2023-03-30T01:40:15;96060.56;;;12.03;67.56
49451;BME280;35336;48.400;10.886;2023-03-30T01:40:39;96048.84;;;12.04;67.27
49451;BME280;35336;48.400;10.886;2023-03-30T01:41:20;96045.38;;;11.97;67.09
49451;BME280;35336;48.400;10.886;2023-03-30T01:41:55;96049.47;;;12.00;67.10
49451;BME280;35336;48.400;10.886;2023-03-30T01:43:15;96058.69;;;12.11;67.49
49451;BME280;35336;48.400;10.886;2023-03-30T01:43:37;96066.69;;;12.11;67.06
49451;BME280;35336;48.400;10.886;2023-03-30T01:44:12;96068.94;;;12.14;67.30
49451;BME280;35336;48.400;10.886;2023-03-30T01:44:44;96045.09;;;12.12;66.77
49451;BME280;35336;48.400;10.886;2023-03-30T01:45:24;96039.75;;;12.12;66.89
49451;BME280;35336;48.400;10.886;2023-03-30T01:46:05;96054.94;;;12.18;67.10
49451;BME280;35336;48.400;10.886;2023-03-30T01:46:29;96045.47;;;12.16;66.75
49451;BME280;35336;48.400;10.886;2023-03-30T01:46:58;96038.94;;;12.12;66.99
49451;BME280;35336;48.400;10.886;2023-03-30T01:47:33;96055.75;;;12.26;66.92
49451;BME280;35336;48.400;10.886;2023-03-30T01:47:52;96063.09;;;12.30;67.04
49451;BME280;35336;48.400;10.886;2023-03-30T01:48:39;96050.38;;;12.26;66.75
49451;BME280;35336;48.400;10.886;2023-03-30T01:49:15;96052.84;;;12.27;66.83
49451;BME280;35336;48.400;10.886;2023-03-30T01:49:44;96036.09;;;12.06;67.09
49451;BME280;35336;48.400;10.886;2023-03-30T01:50:23;96053.69;;;12.21;67.36
49451;BME280;35336;48.400;10.886;2023-03-30T01:50:49;96053.94;;;12.13;67.70
49451;BME280;35336;48.400;10.886;2023-03-30T01:51:09;96045.31;;;12.11;68.29
49451;BME280;35336;48.400;10.886;2023-03-30T01:51:31;96038.75;;;12.06;68.57
49451;BME280;35336;48.400;10.886;2023-03-30T01:51:57;96048.22;;;12.02;68.63
49451;BME280;35336;48.400;10.886;2023-03-30T01:52:26;96064.41;;;12.14;68.98
49451;BME280;35336;48.400;10.886;2023-03-30T01:52:52;96065.25;;;12.15;68.98
49451;BME280;35336;48.400;10.886;2023-03-30T01:53:15;96046.00;;;11.99;69.51
49451;BME280;35336;48.400;10.886;2023-03-30T01:53:43;96077.16;;;12.12;70.01
49451;BME280;35336;48.400;10.886;2023-03-30T01:54:23;96071.00;;;12.12;70.04
49451;BME280;35336;48.400;10.886;2023-03-30T01:54:50;96071.88;;;12.05;70.30
49451;BME280;35336;48.400;10.886;2023-03-30T01:55:14;96075.16;;;12.07;70.68
49451;BME280;35336;48.400;10.886;2023-03-30T01:56:18;96059.94;;;12.01;71.19
49451;BME280;35336;48.400;10.886;2023-03-30T01:56:53;96063.00;;;12.05;71.16